Tiempo atmosférico en la estación meteorológica de Guijo De Granadilla, Cáceres (393 m.)



Fecha
DESCASC
Temp. máxima en grados centígrados (hora)
DESCASC
Temp. mínima en grados centígrados (hora)
DESCASC
Temp. media en grados centígrados
DESCASC
Racha de viento máxima en m/sg (hora)
DESCASC
Velocidad máxima media en intervalos de 10 minutos(hora)
DESCASC
Precipitaciones diarias en mm
DESCASC
Precipitaciones de 00:00 a 06:00 en mm
DESCASC
Precipitaciones de 06:00 a 12:00 en mm
DESCASC
Precipitaciones de 12:00 a 18:00 en mm
DESCASC
Precipitaciones de 18:00 a 24:00 en mm
DESCASC
16-06-2019 30.9 (17:40) 14.2 (07:20) 22.5 8.89 (17:40) 5 (20:30) 0 0 0 0 0
15-06-2019 26.8 (19:40) 8.9 (05:50) 17.8 9.17 (17:00) 5 (09:00) 0 0 0 0 0
14-06-2019 23.7 (17:20) 7.8 (07:20) 15.8 11.11 (19:10) 6.67 (18:30) 0 0 0 0 0
13-06-2019 26.6 (20:50) 8.2 (00:00) 17.4 9.17 (16:20) 5 (16:30) 0 0 0 0 0
12-06-2019 26.7 (19:10) 11.9 (00:00) 19.3 11.11 (15:50) 4.72 (03:20) 0 0 0 0 0
11-06-2019 23.8 (18:30) 14 (00:00) 18.9 13.06 (10:00) 7.5 (10:00) 0 0 0 0 0
10-06-2019 27.8 (17:10) 13.7 (00:00) 20.7 10.83 (17:10) 5.28 (07:00) 0 0 0 0 0
09-06-2019 27.1 (16:30) 9.8 (00:00) 18.5 9.72 (17:20) 5 (20:20) 0 0 0 0 0
08-06-2019 28.3 (17:20) 12.5 (00:00) 20.4 8.33 (17:30) 4.72 (08:50) 0 0 0 0 0
07-06-2019 22.4 (17:40) 7.8 (00:00) 15.1 8.33 (17:50) 4.17 (17:20) 0 0 0 0 0
06-06-2019 22.7 (17:40) 7.3 (00:00) 15 13.61 (18:00) 8.33 (17:50) 1 0 0 0 1
05-06-2019 -- (--) -- (--) -- -- (--) -- (--) 0 0 0 0 0
04-06-2019 -- (--) -- (--) -- -- (--) -- (--) 0 0 0 0 0
03-06-2019 -- (--) -- (--) -- -- (--) -- (--) 0 0 0 0 0
02-06-2019 -- (--) -- (--) -- -- (--) -- (--) 0 0 0 0 0
01-06-2019 35.4 (16:20) 16.4 (00:00) 25.9 6.67 (17:40) 3.33 (17:10) 0 0 0 0 0
31-05-2019 35 (19:00) 14.3 (00:00) 24.7 5.28 (02:10) 3.61 (02:30) 0 0 0 0 0
30-05-2019 33.1 (18:00) 15.7 (00:00) 24.4 8.61 (01:10) 5 (00:50) 0 0 0 0 0
29-05-2019 29.1 (17:40) 13.9 (00:00) 21.5 12.22 (01:10) 7.5 (01:10) 0 0 0 0 0
28-05-2019 28.2 (17:10) 15.6 (00:00) 21.9 11.94 (19:40) 8.33 (12:50) 0 0 0 0 0
27-05-2019 31.2 (16:40) 15.3 (00:00) 23.3 8.61 (17:40) 5.56 (12:10) 0 0 0 0 0
26-05-2019 29.7 (18:00) 15.3 (00:00) 22.5 11.94 (09:10) 7.5 (09:10) 0 0 0 0 0
25-05-2019 26.1 (18:10) 13.1 (00:00) 19.6 13.89 (11:40) 8.33 (05:40) 0 0 0 0 0
24-05-2019 26.6 (16:50) 15.2 (00:00) 20.9 16.11 (10:10) 9.44 (10:10) 0 0 0 0 0
23-05-2019 29.5 (18:00) 15.4 (00:00) 22.4 7.78 (17:10) 4.44 (19:30) 0 0 0 0 0
22-05-2019 29.5 (17:20) 11.2 (00:00) 20.3 7.78 (14:50) 3.89 (14:50) 0 0 0 0 0
21-05-2019 27.5 (18:00) 12.1 (07:20) 19.8 6.94 (09:40) 4.44 (10:40) 0 0 0 0 0

Gráficas

Temp. máximas Temp. mínimas Temp. medias Precipitaciones Rachas de viento máximas Velocidades máximas media en intervalos de 10 minutos

Datos horarios

Fecha y hora oficial Temperatura (ºC) Velocidad del viento (km/h) Dirección del viento Racha (km/h) Dirección de racha Precipitación (mm) Presión (hPa) Tendencia (hPa) Humedad (%)
2019-06-19 23:00:00 20.7 4 Sur 6 Sudoeste 0 -- -- 54
2019-06-19 22:00:00 23.1 2 Sur 19 Sudoeste 0 -- -- 48
2019-06-19 21:00:00 25.2 9 Sur 16 Sur 0 -- -- 42
2019-06-19 20:00:00 25.5 6 Sur 18 Sudoeste 0 -- -- 42
2019-06-19 19:00:00 25.5 8 Sudoeste 27 Sudoeste 0 -- -- 43
2019-06-19 18:00:00 24.7 14 Sudoeste 23 Sudoeste 0 -- -- 43
2019-06-19 17:00:00 24.5 13 Sudoeste 33 Sudoeste 0 -- -- 44
2019-06-19 16:00:00 24.9 11 Sudoeste 27 Sudoeste 0 -- -- 44
2019-06-19 15:00:00 24.1 15 Sudoeste -- -- -- -- -- 46
2019-06-19 14:00:00 -- -- -- -- -- -- -- -- --
2019-06-19 13:00:00 -- -- -- -- -- -- -- -- --
2019-06-19 12:00:00 -- -- -- -- -- -- -- -- --
2019-06-19 11:00:00 -- -- -- -- -- -- -- -- --
2019-06-19 10:00:00 -- -- -- -- -- -- -- -- --
2019-06-19 09:00:00 -- -- -- -- -- -- -- -- --
2019-06-19 08:00:00 -- -- -- -- -- -- -- -- --
2019-06-19 07:00:00 -- -- -- -- -- -- -- -- --
2019-06-19 06:00:00 -- -- -- -- -- -- -- -- --
2019-06-19 05:00:00 -- -- -- -- -- -- -- -- --
2019-06-19 04:00:00 -- -- -- -- -- -- -- -- --
2019-06-19 03:00:00 -- -- -- -- -- -- -- -- --
2019-06-19 02:00:00 -- -- -- -- -- -- -- -- --
2019-06-19 01:00:00 -- -- -- -- -- -- -- -- --
2019-06-19 00:00:00 -- -- -- -- -- -- -- -- --
2019-06-18 23:00:00 -- -- -- -- -- -- -- -- --
2019-06-18 22:00:00 -- -- -- -- -- -- -- -- --
2019-06-18 21:00:00 -- -- -- -- -- -- -- -- --
2019-06-18 20:00:00 -- -- -- -- -- -- -- -- --
2019-06-18 19:00:00 25.1 17 Sudoeste 36 Sudoeste 0 -- -- 46
2019-06-18 18:00:00 25 21 Sudoeste 39 Sudoeste 0 -- -- 43
2019-06-18 17:00:00 25.5 23 Sudoeste 43 Sudoeste 0 -- -- 44
2019-06-18 16:00:00 24.4 16 Sudoeste 42 Oeste 0 -- -- 51
2019-06-18 15:00:00 24.1 22 Sudoeste 42 Sudoeste 0 -- -- 49
2019-06-18 14:00:00 24.4 17 Sudoeste 33 Sudoeste 0 -- -- 41
2019-06-18 13:00:00 23.9 18 Sudoeste 35 Sudoeste 0 -- -- 31
2019-06-18 12:00:00 22.9 18 Sudoeste 31 Sudoeste 0 -- -- 32
2019-06-18 11:00:00 21.6 15 Sudoeste 28 Sudoeste 0 -- -- 38
2019-06-18 10:00:00 19.5 9 Sudoeste 15 Sur 0 -- -- 44
2019-06-18 09:00:00 17.3 5 Sur 9 Sur 0 -- -- 53
2019-06-18 08:00:00 14.5 3 Oeste 8 Noroeste 0 -- -- 61
2019-06-18 07:00:00 12.3 2 Sur 6 Sudoeste 0 -- -- 69
2019-06-18 06:00:00 14 6 Sudoeste 9 Sudoeste 0 -- -- 64
2019-06-18 05:00:00 15.5 8 Sur 10 Sur 0 -- -- 59
2019-06-18 04:00:00 17.1 8 Sur 12 Sur 0 -- -- 53
2019-06-18 03:00:00 18.3 6 Sur 15 Sur 0 -- -- 46
2019-06-18 02:00:00 19.4 11 Sudoeste 15 Sudoeste 0 -- -- 40
2019-06-18 01:00:00 21 3 Sudoeste 6 Sur 0 -- -- 31
2019-06-18 00:00:00 22 4 Este 5 Este 0 -- -- 29
2019-06-17 23:00:00 23.3 3 Este 5 Este 0 -- -- 27
2019-06-17 22:00:00 25.3 0 Calma 10 Oeste 0 -- -- 23
2019-06-17 21:00:00 27.6 6 Oeste 19 Oeste 0 -- -- 18
2019-06-17 20:00:00 28.7 12 Sudoeste 23 Sudoeste 0 -- -- 16
2019-06-17 19:00:00 29.5 17 Sudoeste 29 Sudoeste 0 -- -- 14
2019-06-17 18:00:00 29.8 17 Sudoeste 38 Sudoeste 0 -- -- 14
2019-06-17 17:00:00 31.7 21 Sudoeste 41 Sudoeste 0 -- -- 13
2019-06-17 16:00:00 31 16 Sudeste 35 Sur 0 -- -- 15
2019-06-17 15:00:00 30.9 20 Sur 35 Sur 0 -- -- 17
2019-06-17 14:00:00 28.6 17 Sur 34 Sudeste 0 -- -- 25
2019-06-17 13:00:00 27.3 9 Sur 26 Sur 0 -- -- 29
2019-06-17 12:00:00 25.3 12 Sudoeste 24 Sudoeste 0 -- -- 31
2019-06-17 11:00:00 23.8 7 Sudoeste 17 Sudoeste 0 -- -- 34
2019-06-17 10:00:00 21 4 Oeste 9 Nordeste 0 -- -- 45
2019-06-17 09:00:00 18.3 6 Nordeste 13 Nordeste 0 -- -- 54
2019-06-17 08:00:00 14.6 4 Este 7 Este 0 -- -- 68
2019-06-17 07:00:00 12 4 Este 5 Este 0 -- -- 78
2019-06-17 06:00:00 12 3 Norte 6 Nordeste 0 -- -- 77
2019-06-17 05:00:00 13.1 4 Norte 5 Norte 0 -- -- 74
2019-06-17 04:00:00 13.9 2 Nordeste 5 Norte 0 -- -- 61
2019-06-17 03:00:00 15.1 0 Calma 5 Norte 0 -- -- 57
2019-06-17 02:00:00 16.6 4 Norte 8 Norte 0 -- -- 52
2019-06-17 01:00:00 18.2 3 Nordeste 9 Sudoeste 0 -- -- 43
2019-06-17 00:00:00 21.5 8 Sudoeste 15 Sudoeste 0 -- -- 35
2019-06-16 23:00:00 22.3 7 Sudoeste 10 Sudoeste 0 -- -- 29
2019-06-16 22:00:00 26.2 5 Sur 23 Sudoeste 0 -- -- 24
2019-06-16 21:00:00 29.4 12 Sudoeste 29 Sudoeste 0 -- -- 22
2019-06-16 20:00:00 30.6 11 Sudoeste 25 Sudoeste 0 -- -- 19
2019-06-16 19:00:00 30.5 12 Sudoeste 26 Sudoeste 0 -- -- 19
2019-06-16 18:00:00 30.3 14 Sudoeste 32 Sudoeste 0 -- -- 19
2019-06-16 17:00:00 30.1 5 Sur 22 Sudoeste 0 -- -- 21
2019-06-16 16:00:00 29.3 8 Sudoeste 22 Sudeste 0 -- -- 21
2019-06-16 15:00:00 27.9 10 Sur 18 Sudoeste 0 -- -- 23
2019-06-16 14:00:00 26.7 11 Sur 23 Sudoeste 0 -- -- 25
2019-06-16 13:00:00 26.5 10 Sur 22 Sudoeste 0 -- -- 26
2019-06-16 12:00:00 25.6 6 Sur 15 Sudoeste 0 -- -- 30
2019-06-16 11:00:00 23.5 3 Norte 11 Nordeste 0 -- -- 34
2019-06-16 10:00:00 21.1 7 Nordeste 13 Nordeste 0 -- -- 38
2019-06-16 09:00:00 19.5 8 Nordeste 13 Nordeste 0 -- -- 41
2019-06-16 08:00:00 15.8 5 Nordeste 10 Nordeste 0 -- -- 55
2019-06-16 07:00:00 14.4 7 Nordeste 15 Norte 0 -- -- 54
2019-06-16 06:00:00 15.9 12 Norte 20 Norte 0 -- -- 47
2019-06-16 05:00:00 16.4 11 Nordeste 19 Nordeste 0 -- -- 46
2019-06-16 04:00:00 16.5 10 Norte 15 Norte 0 -- -- 46
2019-06-16 03:00:00 16.9 9 Nordeste 15 Nordeste 0 -- -- 48
2019-06-16 02:00:00 17 10 Nordeste 17 Nordeste 0 -- -- 57
2019-06-16 01:00:00 16 8 Nordeste 10 Este 0 -- -- 48
2019-06-16 00:00:00 17.5 0 Calma 9 Este 0 -- -- 48
2019-06-15 23:00:00 19.8 3 Sudoeste 4 Sudoeste 0 -- -- 38
2019-06-15 22:00:00 22.6 5 Sudoeste 16 Sudoeste 0 -- -- 33
2019-06-15 21:00:00 26 10 Sudoeste 15 Sudoeste 0 -- -- 27
2019-06-15 20:00:00 26.7 7 Sudoeste 17 Sur 0 -- -- 27
2019-06-15 19:00:00 26.6 9 Sur 21 Sudoeste 0 -- -- 27
2019-06-15 18:00:00 25.8 6 Oeste 25 Sudoeste 0 -- -- 27
2019-06-15 17:00:00 26 14 Sudoeste 33 Sudoeste 0 -- -- 27
2019-06-15 16:00:00 25 6 Noroeste 21 Sudoeste 0 -- -- 27
2019-06-15 15:00:00 24.4 10 Sudoeste 19 Sur 0 -- -- 25
2019-06-15 14:00:00 23 7 Sur 20 Norte 0 -- -- 30
2019-06-15 13:00:00 21.5 10 Norte 18 Norte 0 -- -- 28
2019-06-15 12:00:00 19.8 10 Norte 26 Norte 0 -- -- 39
2019-06-15 11:00:00 18.2 16 Norte 26 Norte 0 -- -- 42
2019-06-15 10:00:00 15.9 17 Norte 27 Norte 0 -- -- 53
2019-06-15 09:00:00 13.9 18 Norte 30 Norte 0 -- -- 60
2019-06-15 08:00:00 12.9 13 Norte 23 Norte 0 -- -- 65
2019-06-15 07:00:00 11.6 10 Norte 19 Norte 0 -- -- 69
2019-06-15 06:00:00 8.9 4 Nordeste 10 Nordeste 0 -- -- 78
2019-06-15 05:00:00 9.2 3 Nordeste 5 Nordeste 0 -- -- 76
2019-06-15 04:00:00 9.4 0 Calma 6 Este 0 -- -- 73
2019-06-15 03:00:00 10.9 0 Calma 11 Noroeste 0 -- -- 67
2019-06-15 02:00:00 12 7 Noroeste 12 Oeste 0 -- -- 64
2019-06-15 01:00:00 13.9 7 Oeste 13 Oeste 0 -- -- 56
2019-06-15 00:00:00 15.5 8 Oeste 22 Oeste 0 -- -- 50
2019-06-14 23:00:00 17 11 Oeste 27 Oeste 0 -- -- 47
2019-06-14 22:00:00 17.8 17 Oeste 28 Noroeste 0 -- -- 42
2019-06-14 21:00:00 19.9 18 Oeste 32 Sudoeste 0 -- -- 36
2019-06-14 20:00:00 21.7 18 Oeste 40 Sudoeste 0 -- -- 32
2019-06-14 19:00:00 22.6 21 Sudoeste 39 Sudoeste 0 -- -- 31
2019-06-14 18:00:00 22.5 21 Sudoeste 37 Sudoeste 0 -- -- 29
2019-06-14 17:00:00 22.7 9 Oeste 35 Sudoeste 0 -- -- 30
2019-06-14 16:00:00 22.8 16 Sudoeste 35 Sudoeste 0 -- -- 32
2019-06-14 15:00:00 21.8 19 Sur 33 Sur 0 -- -- 36
2019-06-14 14:00:00 20.3 15 Sur 31 Sudoeste 0 -- -- 42
2019-06-14 13:00:00 19.2 18 Sudoeste 27 Sudoeste 0 -- -- 45
2019-06-14 12:00:00 17.6 13 Sudoeste 27 Sudoeste 0 -- -- 49
2019-06-14 11:00:00 16 10 Sudoeste 23 Sudoeste 0 -- -- 54
2019-06-14 10:00:00 13.8 9 Sudoeste 19 Sur 0 -- -- 62
2019-06-14 09:00:00 12 5 Sur 13 Sudoeste 0 -- -- 67
2019-06-14 08:00:00 10 5 Sudoeste 9 Sudoeste 0 -- -- 72
2019-06-14 07:00:00 8 3 Sudoeste 6 Sur 0 -- -- 76
2019-06-14 06:00:00 9.1 4 Sudeste 8 Sudeste 0 -- -- 70
2019-06-14 05:00:00 10.6 0 Calma 11 Sur 0 -- -- 67
2019-06-14 04:00:00 11.9 8 Sur 13 Sur 0 -- -- 63
2019-06-14 03:00:00 13.2 6 Sur 10 Sur 0 -- -- 58
2019-06-14 02:00:00 15.1 7 Sudoeste 10 Sur 0 -- -- 49
2019-06-14 01:00:00 15.8 8 Sudoeste 13 Norte 0 -- -- 44
2019-06-14 00:00:00 16.8 3 Nordeste 11 Nordeste 0 -- -- 43
2019-06-13 23:00:00 18.8 6 Norte 16 Noroeste 0 -- -- 36
2019-06-13 22:00:00 22.9 4 Oeste 12 Sudoeste 0 -- -- 26
2019-06-13 21:00:00 26.1 8 Sur 22 Sudoeste 0 -- -- 22
2019-06-13 20:00:00 26.5 8 Sudoeste 23 Sur 0 -- -- 20
2019-06-13 19:00:00 26.3 14 Sudoeste 30 Sudoeste 0 -- -- 18
2019-06-13 18:00:00 26.2 18 Sudoeste 31 Sudoeste 0 -- -- 21
2019-06-13 17:00:00 26 17 Sudoeste 33 Sudoeste 0 -- -- 18
2019-06-13 16:00:00 25.3 14 Sudoeste 31 Sudoeste 0 -- -- 21
2019-06-13 15:00:00 24.6 11 Sudoeste 31 Sur 0 -- -- 23
2019-06-13 14:00:00 23.2 10 Sudoeste 31 Sudoeste 0 -- -- 27
2019-06-13 13:00:00 21.7 13 Sudoeste 28 Sur 0 -- -- 30
2019-06-13 12:00:00 20.8 10 Sur 24 Sudeste 0 -- -- 31
2019-06-13 11:00:00 18.8 11 Sur 20 Sudeste 0 -- -- 42
2019-06-13 10:00:00 17.2 3 Sudoeste 12 Este 0 -- -- 44
2019-06-13 09:00:00 15.1 5 Este 10 Este 0 -- -- 53
2019-06-13 08:00:00 10.7 0 Calma 5 Norte 0 -- -- 66
2019-06-13 07:00:00 8.8 2 Este 9 Este 0 -- -- 70
2019-06-13 06:00:00 10.6 4 Nordeste 13 Norte 0 -- -- 65
2019-06-13 05:00:00 10.4 3 Nordeste 7 Nordeste 0 -- -- 59
2019-06-13 04:00:00 13.2 4 Noroeste 15 Nordeste 0 -- -- 49
2019-06-13 03:00:00 15.4 10 Nordeste 19 Nordeste 0 -- -- 40
2019-06-13 02:00:00 14.8 8 Norte 12 Norte 0 -- -- 46
2019-06-13 01:00:00 13.9 3 Nordeste 6 Norte 0 -- -- 41
2019-06-13 00:00:00 16.4 3 Este 13 Oeste 0 -- -- 32
2019-06-12 23:00:00 18.3 9 Noroeste 13 Noroeste 0 -- -- 26
2019-06-12 22:00:00 22.5 6 Oeste 10 Oeste 0 -- -- 20
2019-06-12 21:00:00 26 4 Oeste 16 Noroeste 0 -- -- 18
2019-06-12 20:00:00 26.3 10 Oeste 23 Oeste 0 -- -- 17
2019-06-12 19:00:00 26.6 8 Sudoeste 26 Sudoeste 0 -- -- 17
2019-06-12 18:00:00 26.5 12 Sudoeste 29 Oeste 0 -- -- 16
2019-06-12 17:00:00 26.4 15 Sudoeste 31 Sudoeste 0 -- -- 17
2019-06-12 16:00:00 26.1 13 Sudoeste 40 Noroeste 0 -- -- 17
2019-06-12 15:00:00 24.8 15 Oeste 36 Sudoeste 0 -- -- 19
2019-06-12 14:00:00 24.1 16 Sudoeste 28 Sudoeste 0 -- -- 22
2019-06-12 13:00:00 22.4 10 Este 16 Este 0 -- -- 26
2019-06-12 12:00:00 20.6 6 Nordeste 19 Nordeste 0 -- -- 31
2019-06-12 11:00:00 18.8 11 Norte 21 Norte 0 -- -- 36
2019-06-12 10:00:00 16.4 13 Norte 28 Norte 0 -- -- 43
2019-06-12 09:00:00 14.8 15 Norte 24 Norte 0 -- -- 45
2019-06-12 08:00:00 13.2 13 Norte 25 Nordeste 0 -- -- 48
2019-06-12 07:00:00 12 13 Norte 22 Nordeste 0 -- -- 51
2019-06-12 06:00:00 13.1 13 Nordeste 25 Nordeste 0 -- -- 47
2019-06-12 05:00:00 13.5 12 Nordeste 29 Norte 0 -- -- 46
2019-06-12 04:00:00 14.4 17 Norte 31 Nordeste 0 -- -- 42
2019-06-12 03:00:00 14.7 14 Norte 26 Norte 0 -- -- 39
2019-06-12 02:00:00 13.5 9 Norte 13 Noroeste 0 -- -- 38
2019-06-12 01:00:00 13.2 9 Noroeste 12 Noroeste 0 -- -- 37
2019-06-12 00:00:00 15.1 4 Nordeste 11 Nordeste 0 -- -- 37
2019-06-11 23:00:00 17.1 5 Nordeste 15 Nordeste 0 -- -- 31
2019-06-11 22:00:00 20.3 12 Nordeste 24 Norte 0 -- -- 24
2019-06-11 21:00:00 22.3 15 Norte 28 Nordeste 0 -- -- 22
2019-06-11 20:00:00 23.1 18 Nordeste 34 Norte 0 -- -- 20
2019-06-11 19:00:00 23.6 19 Nordeste 36 Este 0 -- -- 19
2019-06-11 18:00:00 23.4 19 Norte 36 Nordeste 0 -- -- 20
2019-06-11 17:00:00 23.6 22 Nordeste 39 Nordeste 0 -- -- 20
2019-06-11 16:00:00 23.2 22 Nordeste 43 Norte 0 -- -- 22
2019-06-11 15:00:00 22.1 21 Nordeste 47 Nordeste 0 -- -- 27
2019-06-11 14:00:00 21.2 22 Nordeste 42 Nordeste 0 -- -- 32
2019-06-11 13:00:00 19.9 21 Nordeste 39 Nordeste 0 -- -- 38
2019-06-11 12:00:00 18.8 23 Nordeste 45 Este 0 -- -- 43
2019-06-11 11:00:00 19 20 Nordeste 37 Norte 0 -- -- 43
2019-06-11 10:00:00 17.2 27 Norte 47 Norte 0 -- -- 51
2019-06-11 09:00:00 15.6 17 Norte 28 Norte 0 -- -- 56
2019-06-11 08:00:00 15.1 19 Norte 30 Norte 0 -- -- 57
2019-06-11 07:00:00 14 13 Norte 26 Norte 0 -- -- 60
2019-06-11 06:00:00 14.2 16 Norte 25 Norte 0 -- -- 60
2019-06-11 05:00:00 15 18 Norte 27 Norte 0 -- -- 58
2019-06-11 04:00:00 15.9 13 Norte 26 Norte 0 -- -- 55
2019-06-11 03:00:00 16.6 15 Norte 28 Nordeste 0 -- -- 53
2019-06-11 02:00:00 17.5 16 Norte 25 Nordeste 0 -- -- 50
2019-06-11 01:00:00 17.1 5 Norte 15 Noroeste 0 -- -- 49
2019-06-11 00:00:00 18.6 8 Norte 24 Noroeste 0 -- -- 44
2019-06-10 23:00:00 20.2 14 Noroeste 29 Noroeste 0 -- -- 38
2019-06-10 22:00:00 21.9 13 Noroeste 21 Noroeste 0 -- -- 32
2019-06-10 21:00:00 24.7 12 Noroeste 25 Noroeste 0 -- -- 23
2019-06-10 20:00:00 25.7 15 Noroeste 32 Noroeste 0 -- -- 20
2019-06-10 19:00:00 26.6 17 Noroeste 33 Noroeste 0 -- -- 18
2019-06-10 18:00:00 26.9 13 Noroeste 39 Noroeste 0 -- -- 20
2019-06-10 17:00:00 27.6 11 Oeste 23 Oeste 0 -- -- 21
2019-06-10 16:00:00 26.6 9 Noroeste 23 Noroeste 0 -- -- 21
2019-06-10 15:00:00 25.6 11 Noroeste 24 Norte 0 -- -- 26
2019-06-10 14:00:00 24.3 10 Norte 22 Nordeste 0 -- -- 34
2019-06-10 13:00:00 22.9 10 Norte 26 Norte 0 -- -- 39
2019-06-10 12:00:00 21.8 15 Norte 31 Norte 0 -- -- 41
2019-06-10 11:00:00 20.3 18 Norte 30 Norte 0 -- -- 46
2019-06-10 10:00:00 18.5 13 Nordeste 21 Nordeste 0 -- -- 52
2019-06-10 09:00:00 16.3 12 Norte 27 Norte 0 -- -- 58
2019-06-10 08:00:00 14.7 15 Norte 28 Norte 0 -- -- 62
2019-06-10 07:00:00 13.8 19 Norte 28 Norte 0 -- -- 64
2019-06-10 06:00:00 14.3 13 Norte 23 Norte 0 -- -- 61
2019-06-10 05:00:00 14.9 10 Nordeste 19 Norte 0 -- -- 58
2019-06-10 04:00:00 15.4 12 Norte 22 Nordeste 0 -- -- 57
2019-06-10 03:00:00 15.9 10 Norte 20 Nordeste 0 -- -- 55
2019-06-10 02:00:00 16.8 12 Norte 23 Norte 0 -- -- 53
2019-06-10 01:00:00 17.7 14 Norte 24 Nordeste 0 -- -- 50
2019-06-10 00:00:00 17.9 8 Norte 19 Norte 0 -- -- 48
2019-06-09 23:00:00 18.5 6 Noroeste 18 Noroeste 0 -- -- 43
2019-06-09 22:00:00 20.4 9 Noroeste 31 Noroeste 0 -- -- 39
2019-06-09 21:00:00 22.6 18 Noroeste 31 Noroeste 0 -- -- 34
2019-06-09 20:00:00 24.8 16 Norte 27 Noroeste 0 -- -- 28
2019-06-09 19:00:00 25.2 13 Norte 27 Noroeste 0 -- -- 27
2019-06-09 18:00:00 25.8 12 Noroeste 35 Oeste 0 -- -- 27
2019-06-09 17:00:00 25.9 14 Noroeste 29 Noroeste 0 -- -- 24
2019-06-09 16:00:00 26.1 12 Noroeste 33 Oeste 0 -- -- 25
2019-06-09 15:00:00 25.1 14 Sudoeste 24 Sudoeste 0 -- -- 32
2019-06-09 14:00:00 24.4 8 Oeste 21 Oeste 0 -- -- 34
2019-06-09 13:00:00 23.1 6 Norte 15 Noroeste 0 -- -- 38
2019-06-09 12:00:00 21.3 6 Noroeste 17 Norte 0 -- -- 42
2019-06-09 11:00:00 20.1 7 Nordeste 17 Norte 0 -- -- 48
2019-06-09 10:00:00 17.7 11 Norte 17 Norte 0 -- -- 53
2019-06-09 09:00:00 14.4 3 Noroeste 6 Norte 0 -- -- 67
2019-06-09 08:00:00 11.8 3 Sudeste 6 Sudeste 0 -- -- 69
2019-06-09 07:00:00 9.9 0 Calma 11 Sudoeste 0 -- -- 76
2019-06-09 06:00:00 10.7 8 Sudoeste 12 Sudoeste 0 -- -- 76
2019-06-09 05:00:00 14.6 5 Norte 15 Norte 0 -- -- 59
2019-06-09 04:00:00 14.5 8 Norte 15 Norte 0 -- -- 64
2019-06-09 03:00:00 14.1 4 Nordeste 8 Nordeste 0 -- -- 61
2019-06-09 02:00:00 14.5 3 Sudeste 8 Sudoeste 0 -- -- 51
2019-06-09 01:00:00 16.4 0 Calma 12 Noroeste 0 -- -- 45
2019-06-09 00:00:00 17.8 8 Noroeste 16 Oeste 0 -- -- 39
2019-06-08 23:00:00 20.3 0 Calma 9 Oeste 0 -- -- 30
2019-06-08 22:00:00 22.9 5 Oeste 13 Oeste 0 -- -- 25
2019-06-08 21:00:00 24.6 7 Oeste 24 Sur 0 -- -- 23
2019-06-08 20:00:00 26.7 14 Sudoeste 26 Sudoeste 0 -- -- 19
2019-06-08 19:00:00 27.3 12 Sudoeste 29 Sur 0 -- -- 18
2019-06-08 18:00:00 28 15 Sudoeste 30 Sur 0 -- -- 19
2019-06-08 17:00:00 28 9 Oeste 21 Sudoeste 0 -- -- 19
2019-06-08 16:00:00 26.9 11 Sudeste 26 Sur 0 -- -- 19
2019-06-08 15:00:00 26.6 13 Sur 24 Sur 0 -- -- 19
2019-06-08 14:00:00 25.4 9 Sudeste 24 Sur 0 -- -- 24
2019-06-08 13:00:00 22.8 6 Noroeste 16 Nordeste 0 -- -- 30
2019-06-08 12:00:00 21.4 8 Nordeste 18 Norte 0 -- -- 32
2019-06-08 11:00:00 19.4 11 Nordeste 23 Norte 0 -- -- 37
2019-06-08 10:00:00 17.3 14 Norte 23 Norte 0 -- -- 41
2019-06-08 09:00:00 15.6 14 Norte 30 Norte 0 -- -- 45
2019-06-08 08:00:00 14 14 Nordeste 24 Norte 0 -- -- 49
2019-06-08 07:00:00 12.6 13 Norte 27 Nordeste 0 -- -- 53
2019-06-08 06:00:00 12.9 12 Norte 29 Norte 0 -- -- 54
2019-06-08 05:00:00 13.4 14 Norte 25 Nordeste 0 -- -- 54
2019-06-08 04:00:00 13.6 15 Norte 23 Nordeste 0 -- -- 54
2019-06-08 03:00:00 13.7 14 Norte 22 Norte 0 -- -- 52
2019-06-08 02:00:00 13.4 10 Norte 17 Nordeste 0 -- -- 57
2019-06-08 01:00:00 14.9 9 Nordeste 19 Nordeste 0 -- -- 47
2019-06-08 00:00:00 13.4 6 Nordeste 10 Nordeste 0 -- -- 53
2019-06-07 23:00:00 14.2 6 Norte 9 Noroeste 0 -- -- 47
2019-06-07 22:00:00 16.8 7 Norte 18 Noroeste 0 -- -- 40
2019-06-07 21:00:00 20.2 10 Noroeste 17 Noroeste 0 -- -- 32
2019-06-07 20:00:00 21.6 9 Noroeste 21 Norte 0 -- -- 29
2019-06-07 19:00:00 21.9 7 Noroeste 21 Noroeste 0 -- -- 28
2019-06-07 18:00:00 22 12 Noroeste 30 Noroeste 0 -- -- 30
2019-06-07 17:00:00 21.9 13 Norte 27 Norte 0 -- -- 30
2019-06-07 16:00:00 21 9 Noroeste 25 Noroeste 0 -- -- 32
2019-06-07 15:00:00 19 7 Norte 17 Nordeste 0 -- -- 37
2019-06-07 14:00:00 19.2 8 Oeste 21 Noroeste 0 -- -- 37
2019-06-07 13:00:00 17.3 8 Norte 18 Norte 0 -- -- 40
2019-06-07 12:00:00 15.4 7 Noroeste 22 Sur 0 -- -- 50
2019-06-07 11:00:00 14.4 4 Noroeste 15 Norte 0 -- -- 56
2019-06-07 10:00:00 12.8 7 Noroeste 12 Norte 0 -- -- 61
2019-06-07 09:00:00 12.6 2 Norte 9 Sudeste 0 -- -- 77
2019-06-07 08:00:00 8.7 2 Sudoeste 5 Noroeste 0 -- -- 92
2019-06-07 07:00:00 8 3 Sudoeste 4 Este 0 -- -- 93
2019-06-07 06:00:00 8.3 0 Calma 10 Sudoeste 0 -- -- 93
2019-06-07 05:00:00 7.9 4 Sudoeste 10 Noroeste 0 -- -- 92
2019-06-07 04:00:00 9.1 6 Oeste 10 Oeste 0 -- -- 90
2019-06-07 03:00:00 9.9 6 Sudoeste 14 Sudoeste 0 -- -- 89
2019-06-07 02:00:00 11.5 6 Sudoeste 17 Sudoeste 0 -- -- 86
2019-06-07 01:00:00 12.5 11 Sudoeste 20 Sudoeste 0 -- -- 86
2019-06-07 00:00:00 13 9 Sudoeste 40 Sudoeste 0.8 -- -- 86
2019-06-06 23:00:00 15.5 24 Sudoeste 42 Sudoeste 0 -- -- 77
2019-06-06 22:00:00 17.1 19 Sudoeste 39 Sudoeste 0.2 -- -- 64
2019-06-06 21:00:00 18.8 23 Sudoeste 44 Sudoeste 0 -- -- 56
2019-06-06 20:00:00 20.4 27 Sudoeste 48 Sudoeste 0 -- -- 43
2019-06-06 19:00:00 21.3 24 Sudoeste 45 Sudoeste 0 -- -- 38
2019-06-06 18:00:00 22.4 27 Sudoeste 49 Sudoeste 0 -- -- 35
2019-06-06 17:00:00 22.2 22 Sudoeste 42 Sudoeste 0 -- -- 35
2019-06-06 16:00:00 22.4 23 Sur 44 Sudoeste 0 -- -- 35
2019-06-06 15:00:00 20.9 24 Sudoeste 39 Sudoeste 0 -- -- 35
2019-06-06 14:00:00 20.1 23 Sudoeste 38 Sudoeste 0 -- -- 34
2019-06-06 13:00:00 18.7 17 Sudoeste 31 Sur 0 -- -- 41
2019-06-06 12:00:00 17.4 19 Sudoeste 30 Sur 0 -- -- 43
2019-06-06 11:00:00 16.1 12 Sur 21 Sur 0 -- -- 46
2019-06-06 10:00:00 14.6 5 Sur 12 Este 0 -- -- 51
2019-06-06 09:00:00 11.4 3 Sudoeste 6 Sur 0 -- -- 65
2019-06-06 08:00:00 8.7 3 Sur 7 Sur 0 -- -- 71
2019-06-06 07:00:00 8.6 2 Norte 10 Norte 0 -- -- 70
2019-06-06 06:00:00 9 6 Norte 12 Norte 0 -- -- 65
2019-06-06 05:00:00 9.5 5 Norte 10 Norte 0 -- -- 65
2019-06-06 04:00:00 10 6 Norte 12 Norte 0 -- -- 62
2019-06-06 03:00:00 10.2 3 Nordeste 8 Nordeste 0 -- -- 61
2019-06-06 02:00:00 10.8 5 Norte 9 Norte 0 -- -- 59
2019-06-06 01:00:00 12.3 3 Nordeste 10 Noroeste 0 -- -- 53
2019-06-06 00:00:00 13.7 8 Noroeste 11 Noroeste 0 -- -- 49
2019-06-05 23:00:00 14.9 7 Noroeste 15 Noroeste 0 -- -- 44
2019-06-05 22:00:00 16.7 9 Noroeste 24 Noroeste 0 -- -- 39
2019-06-05 21:00:00 18.2 14 Noroeste 26 Noroeste 0 -- -- 35
2019-06-05 20:00:00 19.7 9 Oeste 23 Sudoeste 0 -- -- 32
2019-06-05 19:00:00 20.9 9 Noroeste 23 Noroeste 0 -- -- 31
2019-06-05 18:00:00 21.9 14 Oeste 29 Oeste 0 -- -- 27
2019-06-05 17:00:00 22.5 13 Sudoeste 33 Oeste 0 -- -- 27
2019-06-05 16:00:00 21.6 12 Oeste 29 Oeste 0 -- -- 27
2019-06-05 15:00:00 19.2 7 Oeste 22 Oeste 0 -- -- 34
2019-06-05 14:00:00 18.3 16 Noroeste 31 Norte 0 -- -- 37
2019-06-05 13:00:00 18.2 17 Noroeste 36 Noroeste 0 -- -- 38
2019-06-05 12:00:00 16.5 12 Noroeste 28 Noroeste 0 -- -- 43
2019-06-05 11:00:00 15.2 14 Norte 29 Norte 0 -- -- 46
2019-06-05 10:00:00 15.1 15 Norte 25 Noroeste 0 -- -- 49
2019-06-05 09:00:00 12.6 9 Oeste -- -- -- -- -- 60
2019-06-05 08:00:00 -- -- -- -- -- 0 -- -- --
2019-06-05 07:00:00 -- -- -- -- -- 0 -- -- --
2019-06-05 06:00:00 -- -- -- -- -- 0 -- -- --
2019-06-05 05:00:00 -- -- -- -- -- 0 -- -- --
2019-06-05 04:00:00 -- -- -- -- -- 0 -- -- --
2019-06-05 03:00:00 -- -- -- -- -- 0 -- -- --
2019-06-05 02:00:00 -- -- -- -- -- 0 -- -- --
2019-06-05 01:00:00 -- -- -- -- -- 0 -- -- --
2019-06-05 00:00:00 -- -- -- -- -- 0 -- -- --
2019-06-04 23:00:00 -- -- -- -- -- 0 -- -- --
2019-06-04 22:00:00 -- -- -- -- -- 0 -- -- --
2019-06-04 21:00:00 -- -- -- -- -- 0 -- -- --
2019-06-04 20:00:00 -- -- -- -- -- 0 -- -- --
2019-06-04 19:00:00 -- -- -- -- -- 0 -- -- --
2019-06-04 18:00:00 -- -- -- -- -- 0 -- -- --
2019-06-04 17:00:00 -- -- -- -- -- 0 -- -- --
2019-06-04 16:00:00 -- -- -- -- -- 0 -- -- --
2019-06-04 15:00:00 -- -- -- -- -- 0 -- -- --
2019-06-04 14:00:00 -- -- -- -- -- 0 -- -- --
2019-06-04 13:00:00 -- -- -- -- -- 0 -- -- --
2019-06-04 12:00:00 -- -- -- -- -- -- -- -- --
2019-06-04 11:00:00 -- -- -- -- -- -- -- -- --
2019-06-04 10:00:00 -- -- -- -- -- -- -- -- --
2019-06-04 09:00:00 -- -- -- -- -- -- -- -- --
2019-06-04 08:00:00 -- -- -- -- -- -- -- -- --
2019-06-04 07:00:00 -- -- -- -- -- -- -- -- --
2019-06-04 06:00:00 -- -- -- -- -- -- -- -- --
2019-06-04 05:00:00 -- -- -- -- -- -- -- -- --
2019-06-04 04:00:00 -- -- -- -- -- -- -- -- --
2019-06-04 03:00:00 -- -- -- -- -- -- -- -- --
2019-06-04 02:00:00 -- -- -- -- -- -- -- -- --
2019-06-04 01:00:00 -- -- -- -- -- -- -- -- --
2019-06-04 00:00:00 -- -- -- -- -- -- -- -- --
2019-06-03 23:00:00 -- -- -- -- -- -- -- -- --
2019-06-03 22:00:00 -- -- -- -- -- -- -- -- --
2019-06-03 21:00:00 -- -- -- -- -- -- -- -- --
2019-06-03 20:00:00 -- -- -- -- -- -- -- -- --
2019-06-03 19:00:00 -- -- -- -- -- -- -- -- --
2019-06-03 18:00:00 -- -- -- -- -- -- -- -- --
2019-06-03 17:00:00 -- -- -- -- -- -- -- -- --
2019-06-03 16:00:00 -- -- -- -- -- -- -- -- --
2019-06-03 15:00:00 -- -- -- -- -- -- -- -- --
2019-06-03 14:00:00 -- -- -- -- -- -- -- -- --
2019-06-03 13:00:00 -- -- -- -- -- -- -- -- --
2019-06-03 12:00:00 -- -- -- -- -- -- -- -- --
2019-06-03 11:00:00 -- -- -- -- -- -- -- -- --
2019-06-03 10:00:00 -- -- -- -- -- -- -- -- --
2019-06-03 09:00:00 -- -- -- -- -- -- -- -- --
2019-06-03 08:00:00 -- -- -- -- -- -- -- -- --
2019-06-03 07:00:00 -- -- -- -- -- -- -- -- --
2019-06-03 06:00:00 -- -- -- -- -- -- -- -- --
2019-06-03 05:00:00 -- -- -- -- -- -- -- -- --
2019-06-03 04:00:00 -- -- -- -- -- -- -- -- --
2019-06-03 03:00:00 -- -- -- -- -- -- -- -- --
2019-06-03 02:00:00 -- -- -- -- -- -- -- -- --
2019-06-03 01:00:00 -- -- -- -- -- -- -- -- --
2019-06-03 00:00:00 -- -- -- -- -- -- -- -- --
2019-06-02 23:00:00 -- -- -- -- -- -- -- -- --
2019-06-02 22:00:00 -- -- -- -- -- -- -- -- --
2019-06-02 21:00:00 -- -- -- -- -- -- -- -- --
2019-06-02 20:00:00 -- -- -- -- -- -- -- -- --
2019-06-02 19:00:00 -- -- -- -- -- -- -- -- --
2019-06-02 18:00:00 -- -- -- -- -- -- -- -- --
2019-06-02 17:00:00 -- -- -- -- -- -- -- -- --
2019-06-02 16:00:00 -- -- -- -- -- -- -- -- --
2019-06-02 15:00:00 -- -- -- -- -- -- -- -- --
2019-06-02 14:00:00 -- -- -- -- -- -- -- -- --
2019-06-02 13:00:00 -- -- -- -- -- -- -- -- --
2019-06-02 12:00:00 -- -- -- -- -- -- -- -- --
2019-06-02 11:00:00 -- -- -- -- -- -- -- -- --
2019-06-02 10:00:00 -- -- -- -- -- -- -- -- --
2019-06-02 09:00:00 -- -- -- -- -- -- -- -- --
2019-06-02 08:00:00 -- -- -- -- -- -- -- -- --
2019-06-02 07:00:00 -- -- -- -- -- -- -- -- --
2019-06-02 06:00:00 -- -- -- -- -- -- -- -- --
2019-06-02 05:00:00 -- -- -- -- -- -- -- -- --
2019-06-02 04:00:00 -- -- -- -- -- -- -- -- --
2019-06-02 03:00:00 -- 9 Norte 12 Norte 0 -- -- --
2019-06-02 02:00:00 23.1 8 Nordeste 13 Este 0 -- -- 36
2019-06-02 01:00:00 23.3 8 Nordeste 12 Norte 0 -- -- 39
2019-06-02 00:00:00 22.8 8 Norte 22 Norte 0 -- -- 39
2019-06-01 23:00:00 24.8 5 Nordeste 10 Nordeste 0 -- -- 32
2019-06-01 22:00:00 30.1 4 Oeste 6 Sudoeste 0 -- -- 25
2019-06-01 21:00:00 34.3 5 Oeste 17 Sudoeste 0 -- -- 18
2019-06-01 20:00:00 34.2 12 Sudoeste 20 Sudoeste 0 -- -- 17
2019-06-01 19:00:00 34.7 8 Sur 20 Sur 0 -- -- 16
2019-06-01 18:00:00 35.1 10 Sur 24 Sudoeste 0 -- -- 17
2019-06-01 17:00:00 34.8 8 Oeste 19 Oeste 0 -- -- 17
2019-06-01 16:00:00 34.7 7 Oeste 20 Oeste 0 -- -- 19
2019-06-01 15:00:00 33.6 8 Oeste 21 Sudoeste 0 -- -- 19
2019-06-01 14:00:00 33.1 8 Sudoeste 18 Sudoeste 0 -- -- 21
2019-06-01 13:00:00 31.2 4 Sur 15 Sudoeste 0 -- -- 24
2019-06-01 12:00:00 29.2 2 Nordeste 12 Sur 0 -- -- 28
2019-06-01 11:00:00 26.8 4 Oeste 10 Noroeste 0 -- -- 30
2019-06-01 10:00:00 23.7 2 Oeste 6 Oeste 0 -- -- 42
2019-06-01 09:00:00 20.8 4 Nordeste 10 Nordeste 0 -- -- 50
2019-06-01 08:00:00 18.5 5 Nordeste 15 Nordeste 0 -- -- 51
2019-06-01 07:00:00 16.4 9 Nordeste 17 Nordeste 0 -- -- 61
2019-06-01 06:00:00 17 8 Nordeste 14 Este 0 -- -- 60
2019-06-01 05:00:00 18 2 Nordeste 10 Nordeste 0 -- -- 57
2019-06-01 04:00:00 19.7 8 Nordeste 14 Sudeste 0 -- -- 52
2019-06-01 03:00:00 19.7 7 Nordeste 12 Nordeste 0 -- -- 55
2019-06-01 02:00:00 20.4 6 Nordeste 10 Norte 0 -- -- 53
2019-06-01 01:00:00 20.6 4 Nordeste 6 Norte 0 -- -- 53
2019-06-01 00:00:00 22.1 4 Norte 12 Norte 0 -- -- 43
2019-05-31 23:00:00 25.9 2 Oeste 10 Sudeste 0 -- -- 32
2019-05-31 22:00:00 29.1 5 Oeste 8 Sudoeste 0 -- -- 28
2019-05-31 21:00:00 33.7 7 Oeste 16 Oeste 0 -- -- 21
2019-05-31 20:00:00 34.5 9 Oeste 15 Oeste 0 -- -- 20
2019-05-31 19:00:00 35 7 Sudoeste 16 Noroeste 0 -- -- 19
2019-05-31 18:00:00 34.9 3 Oeste 15 Norte 0 -- -- 19
2019-05-31 17:00:00 34 7 Noroeste 18 Noroeste 0 -- -- 20
2019-05-31 16:00:00 33.5 7 Este 19 Norte 0 -- -- 20
2019-05-31 15:00:00 32.9 6 Norte 19 Sudeste 0 -- -- 21
2019-05-31 14:00:00 32 7 Este 15 Sudoeste 0 -- -- 22
2019-05-31 13:00:00 30.7 9 Sudoeste 18 Sudoeste 0 -- -- 24
2019-05-31 12:00:00 28.7 5 Sudoeste 13 Sur 0 -- -- 25
2019-05-31 11:00:00 26.4 3 Oeste 10 Nordeste 0 -- -- 30
2019-05-31 10:00:00 23.5 4 Nordeste 12 Nordeste 0 -- -- 36
2019-05-31 09:00:00 20.6 8 Nordeste 12 Nordeste 0 -- -- 41
2019-05-31 08:00:00 16.8 0 Calma 6 Nordeste 0 -- -- 56
2019-05-31 07:00:00 14.8 2 Noroeste 8 Este 0 -- -- 57
2019-05-31 06:00:00 17.4 5 Nordeste 12 Nordeste 0 -- -- 50
2019-05-31 05:00:00 19.1 8 Nordeste 11 Nordeste 0 -- -- 45
2019-05-31 04:00:00 20.3 9 Este 18 Nordeste 0 -- -- 42
2019-05-31 03:00:00 22.1 12 Norte 19 Norte 0 -- -- 34
2019-05-31 02:00:00 21.8 12 Norte 19 Norte 0 -- -- 36
2019-05-31 01:00:00 19.5 5 Nordeste 12 Nordeste 0 -- -- 44
2019-05-31 00:00:00 21 4 Nordeste 14 Noroeste 0 -- -- 44
2019-05-30 23:00:00 23.2 2 Nordeste 6 Sur 0 -- -- 39
2019-05-30 22:00:00 27.3 3 Sudoeste 6 Sur 0 -- -- 32
2019-05-30 21:00:00 31.8 2 Sur 18 Nordeste 0 -- -- 25
2019-05-30 20:00:00 32.5 9 Nordeste 23 Norte 0 -- -- 15
2019-05-30 19:00:00 32.9 10 Norte 22 Norte 0 -- -- 15
2019-05-30 18:00:00 33.1 5 Noroeste 17 Noroeste 0 -- -- 18
2019-05-30 17:00:00 32.4 8 Sudoeste 21 Sudoeste 0 -- -- 23
2019-05-30 16:00:00 31.1 7 Sur 21 Sudoeste 0 -- -- 24
2019-05-30 15:00:00 30 7 Oeste 19 Sur 0 -- -- 24
2019-05-30 14:00:00 28.9 6 Sudeste 15 Este 0 -- -- 25
2019-05-30 13:00:00 27.9 5 Sudeste 17 Sudoeste 0 -- -- 26
2019-05-30 12:00:00 25.3 5 Sur 13 Oeste 0 -- -- 31
2019-05-30 11:00:00 23.5 6 Sudoeste 13 Sur 0 -- -- 33
2019-05-30 10:00:00 22.2 4 Sur 10 Nordeste 0 -- -- 34
2019-05-30 09:00:00 20.1 5 Nordeste 13 Norte 0 -- -- 43
2019-05-30 08:00:00 17.2 5 Norte 12 Nordeste 0 -- -- 50
2019-05-30 07:00:00 15.8 7 Nordeste 13 Norte 0 -- -- 51
2019-05-30 06:00:00 16.9 4 Nordeste 18 Norte 0 -- -- 46
2019-05-30 05:00:00 18 11 Norte 19 Norte 0 -- -- 42
2019-05-30 04:00:00 18.7 6 Nordeste 26 Norte 0 -- -- 36
2019-05-30 03:00:00 19.9 15 Norte 28 Norte 0 -- -- 34
2019-05-30 02:00:00 20.3 13 Norte 31 Norte 0 -- -- 35
2019-05-30 01:00:00 21.3 18 Norte 27 Nordeste 0 -- -- 34
2019-05-30 00:00:00 22.2 14 Norte 31 Norte 0 -- -- 34
2019-05-29 23:00:00 23.5 19 Norte 34 Norte 0 -- -- 32
2019-05-29 22:00:00 24.5 16 Norte 32 Norte 0 -- -- 31
2019-05-29 21:00:00 26.8 17 Norte 32 Norte 0 -- -- 28
2019-05-29 20:00:00 28.1 18 Norte 37 Norte 0 -- -- 27
2019-05-29 19:00:00 28.8 22 Nordeste 36 Norte 0 -- -- 25
2019-05-29 18:00:00 29 21 Norte 35 Norte 0 -- -- 26
2019-05-29 17:00:00 28.6 21 Norte 33 Norte 0 -- -- 25
2019-05-29 16:00:00 28.5 19 Nordeste 35 Nordeste 0 -- -- 27
2019-05-29 15:00:00 27.1 23 Norte 37 Norte 0 -- -- 28
2019-05-29 14:00:00 26.2 23 Norte 36 Norte 0 -- -- 29
2019-05-29 13:00:00 25.1 19 Norte 32 Norte 0 -- -- 30
2019-05-29 12:00:00 23.1 17 Norte 29 Norte 0 -- -- 33
2019-05-29 11:00:00 20.7 19 Nordeste 30 Norte 0 -- -- 37
2019-05-29 10:00:00 18.6 18 Nordeste 39 Norte 0 -- -- 41
2019-05-29 09:00:00 16.1 22 Norte 37 Norte 0 -- -- 45
2019-05-29 08:00:00 14.2 21 Norte 40 Norte 0 -- -- 50
2019-05-29 07:00:00 14.1 23 Norte 37 Nordeste 0 -- -- 48
2019-05-29 06:00:00 15.2 18 Norte 33 Norte 0 -- -- 44
2019-05-29 05:00:00 15.9 23 Norte 33 Norte 0 -- -- 42
2019-05-29 04:00:00 17.2 17 Norte 38 Norte 0 -- -- 39
2019-05-29 03:00:00 17.6 25 Norte 41 Nordeste 0 -- -- 42
2019-05-29 02:00:00 18.4 24 Norte 44 Norte 0 -- -- 42
2019-05-29 01:00:00 20.2 27 Norte 39 Norte 0 -- -- 36
2019-05-29 00:00:00 19.9 17 Norte 23 Norte 0 -- -- 38
2019-05-28 23:00:00 21.3 12 Norte 24 Norte 0 -- -- 34
2019-05-28 22:00:00 23.9 16 Nordeste 30 Nordeste 0 -- -- 27
2019-05-28 21:00:00 25.9 19 Nordeste 34 Nordeste 0 -- -- 24
2019-05-28 20:00:00 27.2 17 Nordeste 43 Nordeste 0 -- -- 24
2019-05-28 19:00:00 27.7 22 Nordeste 37 Norte 0 -- -- 22
2019-05-28 18:00:00 28.1 24 Norte 37 Norte 0 -- -- 22
2019-05-28 17:00:00 28.1 22 Norte 39 Nordeste 0 -- -- 21
2019-05-28 16:00:00 27.4 23 Nordeste 40 Nordeste 0 -- -- 20
2019-05-28 15:00:00 26.4 26 Norte 40 Norte 0 -- -- 22
2019-05-28 14:00:00 25.8 22 Norte 37 Norte 0 -- -- 23
2019-05-28 13:00:00 24.2 25 Norte 42 Norte 0 -- -- 28
2019-05-28 12:00:00 23.2 21 Norte 34 Nordeste 0 -- -- 33
2019-05-28 11:00:00 21.8 16 Norte 35 Norte 0 -- -- 41
2019-05-28 10:00:00 19.1 19 Norte 37 Norte 0 -- -- 49
2019-05-28 09:00:00 17.2 17 Norte 36 Norte 0 -- -- 54
2019-05-28 08:00:00 15.9 19 Norte 32 Norte 0 -- -- 58
2019-05-28 07:00:00 15.7 16 Norte 27 Nordeste 0 -- -- 61
2019-05-28 06:00:00 16.6 14 Norte 25 Norte 0 -- -- 59
2019-05-28 05:00:00 17.4 12 Norte 27 Norte 0 -- -- 58
2019-05-28 04:00:00 18.8 16 Norte 29 Norte 0 -- -- 53
2019-05-28 03:00:00 20.6 17 Nordeste 32 Norte 0 -- -- 47
2019-05-28 02:00:00 21.3 10 Nordeste 18 Nordeste 0 -- -- 46
2019-05-28 01:00:00 21.8 10 Nordeste 18 Nordeste 0 -- -- 43
2019-05-28 00:00:00 22.5 7 Nordeste 21 Norte 0 -- -- 40
2019-05-27 23:00:00 22.4 9 Norte 15 Norte 0 -- -- 39
2019-05-27 22:00:00 23.9 10 Noroeste 15 Noroeste 0 -- -- 36
2019-05-27 21:00:00 26.9 12 Noroeste 27 Noroeste 0 -- -- 30
2019-05-27 20:00:00 28.1 13 Norte 25 Noroeste 0 -- -- 29
2019-05-27 19:00:00 29.6 12 Norte 24 Noroeste 0 -- -- 28
2019-05-27 18:00:00 30.5 18 Noroeste 31 Noroeste 0 -- -- 25
2019-05-27 17:00:00 30.5 13 Noroeste 29 Noroeste 0 -- -- 25
2019-05-27 16:00:00 30.3 7 Norte 22 Este 0 -- -- 27
2019-05-27 15:00:00 29.9 4 Este 21 Nordeste 0 -- -- 29
2019-05-27 14:00:00 28.6 12 Nordeste 24 Norte 0 -- -- 32
2019-05-27 13:00:00 27.7 15 Norte 27 Norte 0 -- -- 34
2019-05-27 12:00:00 26.1 16 Norte 27 Norte 0 -- -- 37
2019-05-27 11:00:00 24.4 15 Norte 27 Norte 0 -- -- 41
2019-05-27 10:00:00 22.2 16 Nordeste 23 Norte 0 -- -- 48
2019-05-27 09:00:00 20.1 9 Nordeste 21 Norte 0 -- -- 52
2019-05-27 08:00:00 17.7 9 Norte 14 Nordeste 0 -- -- 60
2019-05-27 07:00:00 15.3 5 Nordeste 12 Nordeste 0 -- -- 65
2019-05-27 06:00:00 16.7 7 Nordeste 13 Norte 0 -- -- 59
2019-05-27 05:00:00 17 7 Norte 14 Nordeste 0 -- -- 60
2019-05-27 04:00:00 18.3 9 Nordeste 17 Este 0 -- -- 52
2019-05-27 03:00:00 16.4 9 Este 12 Este 0 -- -- 61
2019-05-27 02:00:00 16.5 5 Nordeste 12 Oeste 0 -- -- 59
2019-05-27 01:00:00 17.8 7 Norte 9 Norte 0 -- -- 54
2019-05-27 00:00:00 19.4 5 Este 10 Norte 0 -- -- 48
2019-05-26 23:00:00 21.3 4 Nordeste 9 Norte 0 -- -- 42
2019-05-26 22:00:00 23.4 7 Norte 17 Nordeste 0 -- -- 38
2019-05-26 21:00:00 27.9 12 Nordeste 23 Nordeste 0 -- -- 28
2019-05-26 20:00:00 28.8 16 Nordeste 28 Este 0 -- -- 27
2019-05-26 19:00:00 29.6 16 Nordeste 30 Nordeste 0 -- -- 25
2019-05-26 18:00:00 29.7 15 Nordeste 31 Nordeste 0 -- -- 27
2019-05-26 17:00:00 29.2 18 Nordeste 35 Nordeste 0 -- -- 28
2019-05-26 16:00:00 28.6 18 Nordeste 30 Nordeste 0 -- -- 29
2019-05-26 15:00:00 27.4 18 Nordeste 33 Norte 0 -- -- 32
2019-05-26 14:00:00 26 20 Norte 34 Norte 0 -- -- 34
2019-05-26 13:00:00 24.5 21 Norte 38 Norte 0 -- -- 35
2019-05-26 12:00:00 22.5 25 Norte 40 Norte 0 -- -- 40
2019-05-26 11:00:00 21 25 Norte 41 Norte 0 -- -- 42
2019-05-26 10:00:00 19 24 Norte 43 Norte 0 -- -- 46
2019-05-26 09:00:00 17 25 Norte 39 Norte 0 -- -- 49
2019-05-26 08:00:00 15.8 21 Norte 35 Norte 0 -- -- 49
2019-05-26 07:00:00 15.3 23 Norte 38 Norte 0 -- -- 45
2019-05-26 06:00:00 15.9 23 Norte 34 Norte 0 -- -- 42
2019-05-26 05:00:00 16.5 18 Norte 28 Norte 0 -- -- 43
2019-05-26 04:00:00 17.4 17 Norte 35 Norte 0 -- -- 40
2019-05-26 03:00:00 17.7 18 Norte 29 Norte 0 -- -- 43
2019-05-26 02:00:00 17.6 16 Norte 23 Norte 0 -- -- 44
2019-05-26 01:00:00 19.1 17 Norte 25 Norte 0 -- -- 39
2019-05-26 00:00:00 19 14 Norte 20 Norte 0 -- -- 41
2019-05-25 23:00:00 19.6 10 Norte 17 Nordeste 0 -- -- 40
2019-05-25 22:00:00 22 10 Nordeste 28 Nordeste 0 -- -- 32
2019-05-25 21:00:00 24.3 16 Nordeste 32 Este 0 -- -- 28
2019-05-25 20:00:00 25.5 18 Nordeste 32 Nordeste 0 -- -- 25
2019-05-25 19:00:00 25.8 21 Nordeste 40 Norte 0 -- -- 26
2019-05-25 18:00:00 25.9 25 Norte 43 Norte 0 -- -- 24
2019-05-25 17:00:00 25.7 20 Norte 42 Norte 0 -- -- 28
2019-05-25 16:00:00 25.1 23 Norte 37 Nordeste 0 -- -- 30
2019-05-25 15:00:00 24.6 21 Nordeste 41 Norte 0 -- -- 29
2019-05-25 14:00:00 23.1 25 Nordeste 46 Norte 0 -- -- 33
2019-05-25 13:00:00 21.8 26 Norte 39 Norte 0 -- -- 36
2019-05-25 12:00:00 20.6 24 Nordeste 50 Norte 0 -- -- 39
2019-05-25 11:00:00 19.1 23 Norte 49 Nordeste 0 -- -- 44
2019-05-25 10:00:00 17.7 17 Norte 31 Norte 0 -- -- 49
2019-05-25 09:00:00 16.1 17 Nordeste 36 Nordeste 0 -- -- 55
2019-05-25 08:00:00 14.7 14 Nordeste 28 Norte 0 -- -- 58
2019-05-25 07:00:00 13.2 17 Norte 39 Nordeste 0 -- -- 65
2019-05-25 06:00:00 13.3 24 Norte 41 Norte 0 -- -- 63
2019-05-25 05:00:00 14.3 23 Norte 39 Nordeste 0 -- -- 59
2019-05-25 04:00:00 15 21 Norte 36 Norte 0 -- -- 55
2019-05-25 03:00:00 15.7 19 Norte 30 Norte 0 -- -- 51
2019-05-25 02:00:00 17.1 21 Norte 39 Norte 0 -- -- 47
2019-05-25 01:00:00 18.3 16 Norte 33 Norte 0 -- -- 43
2019-05-25 00:00:00 19.8 19 Norte 35 Nordeste 0 -- -- 38
2019-05-24 23:00:00 21 18 Norte 27 Nordeste 0 -- -- 36
2019-05-24 22:00:00 22.4 18 Nordeste 32 Nordeste 0 -- -- 31
2019-05-24 21:00:00 23.8 17 Nordeste 32 Nordeste 0 -- -- 30
2019-05-24 20:00:00 25.2 21 Nordeste 35 Nordeste 0 -- -- 27
2019-05-24 19:00:00 25.8 21 Nordeste 41 Nordeste 0 -- -- 24
2019-05-24 18:00:00 26.4 22 Norte 39 Norte 0 -- -- 26
2019-05-24 17:00:00 26.2 22 Nordeste 41 Nordeste 0 -- -- 27
2019-05-24 16:00:00 25.8 22 Nordeste 44 Nordeste 0 -- -- 28
2019-05-24 15:00:00 24.7 26 Norte 42 Norte 0 -- -- 31
2019-05-24 14:00:00 23.5 27 Norte 48 Norte 0 -- -- 37
2019-05-24 13:00:00 22.4 27 Norte 52 Norte 0 -- -- 38
2019-05-24 12:00:00 21.1 28 Nordeste 44 Nordeste 0 -- -- 46
2019-05-24 11:00:00 19.2 28 Nordeste 58 Nordeste 0 -- -- 51
2019-05-24 10:00:00 17.5 33 Norte 51 Norte 0 -- -- 57
2019-05-24 09:00:00 16.8 26 Norte 44 Norte 0 -- -- 63
2019-05-24 08:00:00 15.2 28 Norte 44 Norte 0 -- -- 64
2019-05-24 07:00:00 15.5 17 Nordeste 29 Norte 0 -- -- 58
2019-05-24 06:00:00 15.9 14 Norte 32 Norte 0 -- -- 56
2019-05-24 05:00:00 16.7 18 Norte 31 Norte 0 -- -- 54
2019-05-24 04:00:00 17.2 15 Norte 29 Norte 0 -- -- 53
2019-05-24 03:00:00 18.1 13 Nordeste 22 Norte 0 -- -- 51
2019-05-24 02:00:00 18.7 14 Nordeste 24 Norte 0 -- -- 51
2019-05-24 01:00:00 19.5 18 Norte 27 Norte 0 -- -- 50
2019-05-24 00:00:00 20.5 14 Nordeste 24 Nordeste 0 -- -- 49
2019-05-23 23:00:00 20.9 9 Norte 15 Norte 0 -- -- 49
2019-05-23 22:00:00 21.8 8 Noroeste 17 Norte 0 -- -- 45
2019-05-23 21:00:00 25 11 Norte 24 Norte 0 -- -- 32
2019-05-23 20:00:00 27 13 Noroeste 23 Noroeste 0 -- -- 28
2019-05-23 19:00:00 27.9 6 Noroeste 26 Noroeste 0 -- -- 27
2019-05-23 18:00:00 29.5 12 Oeste 28 Sudoeste 0 -- -- 28
2019-05-23 17:00:00 28.7 9 Sur 28 Sudoeste 0 -- -- 30
2019-05-23 16:00:00 28.5 14 Sudoeste 26 Sudoeste 0 -- -- 33
2019-05-23 15:00:00 27.8 11 Sur 25 Sur 0 -- -- 34
2019-05-23 14:00:00 26.7 11 Sur 21 Sudoeste 0 -- -- 36
2019-05-23 13:00:00 25.6 8 Sudoeste 21 Sudoeste 0 -- -- 38
2019-05-23 12:00:00 24.3 11 Sudoeste 18 Sur 0 -- -- 45
2019-05-23 11:00:00 22.5 6 Sudoeste 13 Sudoeste 0 -- -- 52
2019-05-23 10:00:00 18.8 7 Sudoeste 12 Sudoeste 0 -- -- 64
2019-05-23 09:00:00 16.3 7 Sudoeste 15 Sudoeste 0 -- -- 74
2019-05-23 08:00:00 17.3 12 Nordeste 22 Nordeste 0 -- -- 68
2019-05-23 07:00:00 16.6 9 Norte 15 Norte 0 -- -- 69
2019-05-23 06:00:00 15.4 8 Norte 10 Norte 0 -- -- 72
2019-05-23 05:00:00 17.5 9 Norte 18 Norte 0 -- -- 65
2019-05-23 04:00:00 17.6 9 Norte 18 Nordeste 0 -- -- 68
2019-05-23 03:00:00 19 7 Norte 23 Nordeste 0 -- -- 63
2019-05-23 02:00:00 16.8 8 Nordeste 10 Nordeste 0 -- -- 65
2019-05-23 01:00:00 17.1 5 Este 14 Norte 0 -- -- 59
2019-05-23 00:00:00 17.5 8 Oeste 17 Sudoeste 0 -- -- 58
2019-05-22 23:00:00 20.7 6 Nordeste 9 Este 0 -- -- 44
2019-05-22 22:00:00 24.6 4 Noroeste 5 Noroeste 0 -- -- 33
2019-05-22 21:00:00 28.5 0 Calma 14 Sudoeste 0 -- -- 28
2019-05-22 20:00:00 28.8 5 Oeste 19 Oeste 0 -- -- 27
2019-05-22 19:00:00 29.3 10 Oeste 22 Sudoeste 0 -- -- 26
2019-05-22 18:00:00 29.5 9 Sudoeste 26 Sudoeste 0 -- -- 25
2019-05-22 17:00:00 29.1 12 Oeste 26 Sudoeste 0 -- -- 26
2019-05-22 16:00:00 28.3 8 Sudoeste 23 Sudoeste 0 -- -- 27
2019-05-22 15:00:00 28.2 11 Sudoeste 28 Sudoeste 0 -- -- 26
2019-05-22 14:00:00 27.5 9 Sudoeste 21 Sudoeste 0 -- -- 28
2019-05-22 13:00:00 26.4 9 Sur 19 Sur 0 -- -- 32
2019-05-22 12:00:00 24.3 6 Sudoeste 13 Sudoeste 0 -- -- 35
2019-05-22 11:00:00 21.9 3 Nordeste 9 Norte 0 -- -- 41
2019-05-22 10:00:00 19.7 4 Norte 9 Norte 0 -- -- 48
2019-05-22 09:00:00 16 4 Norte 7 Norte 0 -- -- 61
2019-05-22 08:00:00 12.4 0 Calma 16 Sudoeste 0 -- -- 73
2019-05-22 07:00:00 12.1 6 Nordeste 9 Nordeste 0 -- -- 69
2019-05-22 06:00:00 13.8 3 Este 13 Nordeste 0 -- -- 66
2019-05-22 05:00:00 15.4 6 Nordeste 14 Norte 0 -- -- 57
2019-05-22 04:00:00 15.1 8 Nordeste 13 Norte 0 -- -- 62
2019-05-22 03:00:00 14.5 9 Nordeste 14 Nordeste 0 -- -- 67
2019-05-22 02:00:00 13.9 4 Norte 7 Este 0 -- -- 69
2019-05-22 01:00:00 15.9 5 Nordeste 12 Nordeste 0 -- -- 67
2019-05-22 00:00:00 16.7 6 Norte 13 Norte 0 -- -- 62
2019-05-21 23:00:00 18.3 4 Nordeste 10 Noroeste 0 -- -- 51
2019-05-21 22:00:00 22.2 5 Oeste 9 Sudoeste 0 -- -- 39
2019-05-21 21:00:00 25.2 7 Sudoeste 14 Sudoeste 0 -- -- 33
2019-05-21 20:00:00 25.8 7 Oeste 16 Oeste 0 -- -- 31
2019-05-21 19:00:00 26.9 10 Oeste 23 Oeste 0 -- -- 29
2019-05-21 18:00:00 27.5 10 Sudoeste 19 Sudoeste 0 -- -- 28
2019-05-21 17:00:00 26.1 9 Nordeste 22 Norte 0 -- -- 27
2019-05-21 16:00:00 25.8 8 Norte 22 Sudeste 0 -- -- 28
2019-05-21 15:00:00 24.6 6 Oeste 18 Noroeste 0 -- -- 29
2019-05-21 14:00:00 24.2 8 Norte 17 Noroeste 0 -- -- 33
2019-05-21 13:00:00 22.8 9 Norte 21 Noroeste 0 -- -- 33
2019-05-21 12:00:00 21.6 10 Nordeste 22 Norte 0 -- -- 39
2019-05-21 11:00:00 19.3 15 Norte 24 Norte 0 -- -- 44
2019-05-21 10:00:00 17.7 11 Norte 25 Nordeste 0 -- -- 50
2019-05-21 09:00:00 15.5 14 Norte 21 Nordeste 0 -- -- 57
2019-05-21 08:00:00 13.3 10 Nordeste 18 Norte 0 -- -- 66
2019-05-21 07:00:00 12.6 9 Nordeste 17 Nordeste 0 -- -- 66
2019-05-21 06:00:00 12.5 11 Norte 19 Norte 0 -- -- 65
2019-05-21 05:00:00 12.8 7 Norte 14 Norte 0 -- -- 64
2019-05-21 04:00:00 14 9 Nordeste 17 Norte 0 -- -- 59
2019-05-21 03:00:00 13.3 9 Norte 14 Norte 0 -- -- 61
2019-05-21 02:00:00 13.8 10 Norte 14 Norte 0 -- -- 56
2019-05-21 01:00:00 15.4 7 Nordeste 13 Norte 0 -- -- 52
2019-05-21 00:00:00 14.8 6 Nordeste 10 Nordeste 0 -- -- 51